KLM967 EHAM-EGNV
Flight info
| Callsign | KLM967 |
|---|---|
| Flight time | N/A |
| Altitude | 32000 |
| Route | BERGI L602 NALAX L46 ESHIN N110 ERKIT |
| Aircraft | E75L/M-SDE3GILORVW/S |
Departure
| Time | 2026-04-27 19:33 |
|---|---|
| Airport | Amsterdam Airport Schiphol (EHAM) |
Arrival
| Time | N/A |
|---|---|
| Airport | Teesside International Airport (EGNV) |
| Time | Latitude | Longitude | Altitude | Speed | Heading |
|---|---|---|---|---|---|
| 2026-04-27 19:06 | 52.30123 | 4.75632 | -5 ft | 0 kts | 58° |
| 2026-04-27 19:18 | 52.30121 | 4.75628 | -5 ft | 2 kts | 58° |
| 2026-04-27 19:18 | 52.30112 | 4.75605 | -5 ft | 2 kts | 59° |
| 2026-04-27 19:18 | 52.30105 | 4.75581 | -5 ft | 2 kts | 68° |
| 2026-04-27 19:18 | 52.30106 | 4.75557 | -5 ft | 2 kts | 137° |
| 2026-04-27 19:19 | 52.30110 | 4.75551 | -5 ft | 0 kts | 145° |
| 2026-04-27 19:21 | 52.30107 | 4.75555 | -5 ft | 2 kts | 147° |
| 2026-04-27 19:22 | 52.30083 | 4.75580 | -5 ft | 6 kts | 147° |
| 2026-04-27 19:22 | 52.30038 | 4.75627 | -5 ft | 10 kts | 147° |
| 2026-04-27 19:22 | 52.29986 | 4.75676 | -5 ft | 3 kts | 176° |
| 2026-04-27 19:22 | 52.29964 | 4.75653 | -5 ft | 5 kts | 231° |
| 2026-04-27 19:23 | 52.29936 | 4.75585 | -5 ft | 9 kts | 238° |
| 2026-04-27 19:23 | 52.29896 | 4.75480 | -5 ft | 13 kts | 238° |
| 2026-04-27 19:23 | 52.29845 | 4.75340 | -5 ft | 16 kts | 242° |
| 2026-04-27 19:23 | 52.29856 | 4.75166 | -5 ft | 18 kts | 309° |
| 2026-04-27 19:24 | 52.29943 | 4.75006 | -5 ft | 20 kts | 309° |
| 2026-04-27 19:24 | 52.30038 | 4.74829 | -5 ft | 22 kts | 311° |
| 2026-04-27 19:24 | 52.30142 | 4.74635 | -5 ft | 24 kts | 312° |
| 2026-04-27 19:24 | 52.30257 | 4.74423 | -5 ft | 26 kts | 311° |
| 2026-04-27 19:25 | 52.30359 | 4.74242 | -5 ft | 18 kts | 320° |
| 2026-04-27 19:25 | 52.30483 | 4.74196 | -5 ft | 20 kts | 4° |
| 2026-04-27 19:25 | 52.30626 | 4.74208 | -5 ft | 21 kts | 3° |
| 2026-04-27 19:25 | 52.30782 | 4.74225 | -5 ft | 23 kts | 4° |
| 2026-04-27 19:26 | 52.30946 | 4.74238 | -5 ft | 25 kts | 2° |
| 2026-04-27 19:26 | 52.31124 | 4.74255 | -5 ft | 26 kts | 3° |
| 2026-04-27 19:26 | 52.31309 | 4.74272 | -5 ft | 27 kts | 4° |
| 2026-04-27 19:26 | 52.31504 | 4.74290 | -5 ft | 29 kts | 3° |
| 2026-04-27 19:27 | 52.31699 | 4.74308 | -3 ft | 29 kts | 4° |
| 2026-04-27 19:27 | 52.31903 | 4.74328 | -8 ft | 19 kts | 3° |
| 2026-04-27 19:27 | 52.32020 | 4.74299 | -8 ft | 17 kts | 308° |
| 2026-04-27 19:27 | 52.32035 | 4.74107 | -8 ft | 19 kts | 272° |
| 2026-04-27 19:28 | 52.32041 | 4.73890 | -4 ft | 19 kts | 272° |
| 2026-04-27 19:28 | 52.32051 | 4.73668 | -1 ft | 20 kts | 275° |
| 2026-04-27 19:28 | 52.32066 | 4.73435 | -1 ft | 21 kts | 287° |
| 2026-04-27 19:28 | 52.32166 | 4.73245 | -3 ft | 24 kts | 319° |
| 2026-04-27 19:29 | 52.32300 | 4.73057 | -6 ft | 27 kts | 319° |
| 2026-04-27 19:29 | 52.32446 | 4.72853 | -5 ft | 26 kts | 319° |
| 2026-04-27 19:29 | 52.32574 | 4.72671 | -6 ft | 25 kts | 320° |
| 2026-04-27 19:29 | 52.32692 | 4.72492 | -2 ft | 21 kts | 312° |
| 2026-04-27 19:30 | 52.32804 | 4.72287 | -2 ft | 23 kts | 311° |
| 2026-04-27 19:30 | 52.32920 | 4.72072 | -5 ft | 26 kts | 311° |
| 2026-04-27 19:30 | 52.33045 | 4.71840 | -5 ft | 28 kts | 311° |
| 2026-04-27 19:30 | 52.33145 | 4.71638 | -3 ft | 18 kts | 291° |
| 2026-04-27 19:31 | 52.33131 | 4.71445 | -3 ft | 14 kts | 281° |
| 2026-04-27 19:31 | 52.33195 | 4.71305 | -3 ft | 17 kts | 311° |
| 2026-04-27 19:31 | 52.33284 | 4.71143 | -7 ft | 21 kts | 313° |
| 2026-04-27 19:31 | 52.33370 | 4.70985 | -6 ft | 15 kts | 311° |
| 2026-04-27 19:32 | 52.33433 | 4.70936 | -6 ft | 0 kts | 5° |
| 2026-04-27 19:32 | 52.33486 | 4.70941 | -5 ft | 36 kts | 4° |
| 2026-04-27 19:32 | 52.34059 | 4.70994 | -8 ft | 127 kts | 3° |
| 2026-04-27 19:32 | 52.35131 | 4.71112 | 470 ft | 171 kts | 7° |
| 2026-04-27 19:33 | 52.36418 | 4.71262 | 1350 ft | 195 kts | 5° |
| 2026-04-27 19:33 | 52.36881 | 4.71297 | 1710 ft | 199 kts | 5° |
| 2026-04-27 19:33 | 52.39356 | 4.71502 | 3354 ft | 223 kts | 4° |
| 2026-04-27 19:33 | 52.40974 | 4.71634 | 4208 ft | 243 kts | 0° |
| 2026-04-27 19:34 | 52.42653 | 4.70999 | 5150 ft | 254 kts | 334° |
| 2026-04-27 19:34 | 52.44189 | 4.69477 | 6179 ft | 260 kts | 329° |
| 2026-04-27 19:34 | 52.45723 | 4.67925 | 7120 ft | 265 kts | 328° |
| 2026-04-27 19:34 | 52.47300 | 4.66306 | 8034 ft | 270 kts | 327° |
| 2026-04-27 19:35 | 52.48906 | 4.64616 | 8922 ft | 275 kts | 326° |
| 2026-04-27 19:35 | 52.50523 | 4.62888 | 9828 ft | 280 kts | 325° |
| 2026-04-27 19:35 | 52.51608 | 4.61722 | 10390 ft | 283 kts | 325° |
| 2026-04-27 19:35 | 52.53887 | 4.59241 | 11083 ft | 306 kts | 324° |
| 2026-04-27 19:36 | 52.55680 | 4.57263 | 11828 ft | 313 kts | 324° |
| 2026-04-27 19:36 | 52.56922 | 4.55897 | 12345 ft | 319 kts | 324° |
| 2026-04-27 19:36 | 52.58761 | 4.53870 | 13301 ft | 321 kts | 325° |
| 2026-04-27 19:36 | 52.60627 | 4.51807 | 14306 ft | 323 kts | 324° |
| 2026-04-27 19:37 | 52.62501 | 4.49722 | 15250 ft | 325 kts | 324° |
| 2026-04-27 19:37 | 52.64363 | 4.47632 | 16176 ft | 329 kts | 324° |
| 2026-04-27 19:37 | 52.66263 | 4.45477 | 17058 ft | 333 kts | 323° |
| 2026-04-27 19:37 | 52.68187 | 4.43277 | 17907 ft | 339 kts | 323° |
| 2026-04-27 19:38 | 52.70141 | 4.41025 | 18735 ft | 344 kts | 323° |
| 2026-04-27 19:38 | 52.72083 | 4.38775 | 19475 ft | 347 kts | 322° |
| 2026-04-27 19:38 | 52.74031 | 4.36390 | 20203 ft | 349 kts | 316° |
| 2026-04-27 19:38 | 52.75532 | 4.33273 | 20918 ft | 348 kts | 299° |
| 2026-04-27 19:39 | 52.76752 | 4.29801 | 21630 ft | 351 kts | 298° |
| 2026-04-27 19:39 | 52.77963 | 4.26275 | 22357 ft | 353 kts | 297° |
| 2026-04-27 19:39 | 52.79183 | 4.22724 | 23090 ft | 356 kts | 297° |
| 2026-04-27 19:39 | 52.80410 | 4.19151 | 23837 ft | 359 kts | 297° |
| 2026-04-27 19:40 | 52.81647 | 4.15544 | 24451 ft | 362 kts | 297° |
| 2026-04-27 19:40 | 52.82877 | 4.11949 | 25036 ft | 365 kts | 296° |
| 2026-04-27 19:40 | 52.84134 | 4.08263 | 25625 ft | 369 kts | 296° |
| 2026-04-27 19:40 | 52.85402 | 4.04535 | 26200 ft | 372 kts | 296° |
| 2026-04-27 19:41 | 52.86679 | 4.00771 | 26752 ft | 375 kts | 295° |
| 2026-04-27 19:41 | 52.87961 | 3.96980 | 27303 ft | 379 kts | 295° |
| 2026-04-27 19:41 | 52.89233 | 3.93209 | 27837 ft | 382 kts | 295° |
| 2026-04-27 19:41 | 52.90536 | 3.89337 | 28383 ft | 385 kts | 295° |
| 2026-04-27 19:42 | 52.91841 | 3.85447 | 28913 ft | 388 kts | 294° |
| 2026-04-27 19:42 | 52.93155 | 3.81522 | 29430 ft | 391 kts | 294° |
| 2026-04-27 19:42 | 52.94206 | 3.77391 | 29914 ft | 388 kts | 284° |
| 2026-04-27 19:42 | 52.95019 | 3.73108 | 30419 ft | 391 kts | 283° |
| 2026-04-27 19:43 | 52.95815 | 3.68772 | 30803 ft | 394 kts | 283° |
| 2026-04-27 19:43 | 52.96610 | 3.64387 | 31149 ft | 398 kts | 283° |
| 2026-04-27 19:43 | 52.97405 | 3.59971 | 31489 ft | 402 kts | 283° |
| 2026-04-27 19:43 | 52.98196 | 3.55570 | 31818 ft | 405 kts | 284° |
| 2026-04-27 19:44 | 52.99003 | 3.51064 | 32133 ft | 408 kts | 284° |
| 2026-04-27 19:44 | 52.99817 | 3.46513 | 32380 ft | 413 kts | 284° |
| 2026-04-27 19:44 | 53.00641 | 3.41867 | 32372 ft | 424 kts | 284° |
| 2026-04-27 19:45 | 53.02328 | 3.32293 | 32273 ft | 434 kts | 284° |
| 2026-04-27 19:45 | 53.04019 | 3.22665 | 32295 ft | 437 kts | 284° |
| 2026-04-27 19:46 | 53.05710 | 3.12982 | 32298 ft | 438 kts | 284° |
| 2026-04-27 19:46 | 53.07408 | 3.03206 | 32298 ft | 439 kts | 284° |
| 2026-04-27 19:47 | 53.09090 | 2.93468 | 32300 ft | 440 kts | 284° |
| 2026-04-27 19:47 | 53.10779 | 2.83632 | 32298 ft | 441 kts | 285° |
| 2026-04-27 19:48 | 53.12452 | 2.73841 | 32298 ft | 442 kts | 285° |
| 2026-04-27 19:48 | 53.14131 | 2.63961 | 32300 ft | 443 kts | 285° |
| 2026-04-27 19:49 | 53.15796 | 2.54119 | 32299 ft | 443 kts | 285° |
| 2026-04-27 19:49 | 53.17465 | 2.44195 | 32300 ft | 444 kts | 285° |
| 2026-04-27 19:50 | 53.19117 | 2.34323 | 32299 ft | 445 kts | 285° |
| 2026-04-27 19:50 | 53.20788 | 2.24340 | 32298 ft | 445 kts | 285° |
| 2026-04-27 19:51 | 53.22433 | 2.14425 | 32299 ft | 446 kts | 285° |
| 2026-04-27 19:51 | 53.24069 | 2.04429 | 32299 ft | 446 kts | 285° |
| 2026-04-27 19:52 | 53.25711 | 1.94396 | 32301 ft | 447 kts | 285° |
| 2026-04-27 19:52 | 53.27335 | 1.84427 | 32304 ft | 447 kts | 286° |
| 2026-04-27 19:53 | 53.29777 | 1.69337 | 32302 ft | 448 kts | 286° |
| 2026-04-27 19:53 | 53.31394 | 1.59270 | 32301 ft | 448 kts | 286° |
| 2026-04-27 19:54 | 53.33919 | 1.49843 | 32335 ft | 446 kts | 304° |
| 2026-04-27 19:54 | 53.37285 | 1.41160 | 32300 ft | 446 kts | 303° |
| 2026-04-27 19:55 | 53.40609 | 1.32367 | 32298 ft | 446 kts | 303° |
| 2026-04-27 19:55 | 53.43919 | 1.23530 | 32303 ft | 446 kts | 303° |
| 2026-04-27 19:56 | 53.47199 | 1.14738 | 32301 ft | 446 kts | 303° |
| 2026-04-27 19:56 | 53.50494 | 1.05871 | 32301 ft | 446 kts | 304° |
| 2026-04-27 19:57 | 53.53760 | 0.97054 | 32307 ft | 446 kts | 304° |
| 2026-04-27 19:57 | 53.57046 | 0.88151 | 32310 ft | 446 kts | 304° |
| 2026-04-27 19:58 | 53.60295 | 0.79315 | 32310 ft | 446 kts | 304° |
| 2026-04-27 19:58 | 53.61910 | 0.74907 | 32288 ft | 432 kts | 304° |
| 2026-04-27 19:58 | 53.63448 | 0.70694 | 32246 ft | 409 kts | 304° |
| 2026-04-27 19:59 | 53.64887 | 0.66749 | 32293 ft | 389 kts | 304° |
| 2026-04-27 19:59 | 53.66263 | 0.62971 | 32067 ft | 365 kts | 305° |
| 2026-04-27 19:59 | 53.67569 | 0.59397 | 31829 ft | 348 kts | 305° |
| 2026-04-27 19:59 | 53.68816 | 0.55983 | 31309 ft | 334 kts | 306° |
| 2026-04-27 20:00 | 53.70019 | 0.52701 | 30707 ft | 324 kts | 306° |
| 2026-04-27 20:00 | 53.71205 | 0.49469 | 30154 ft | 323 kts | 306° |
| 2026-04-27 20:00 | 53.72377 | 0.46265 | 29527 ft | 324 kts | 306° |
| 2026-04-27 20:00 | 53.73591 | 0.42941 | 29099 ft | 346 kts | 306° |
| 2026-04-27 20:01 | 53.74900 | 0.39355 | 28679 ft | 375 kts | 305° |
| 2026-04-27 20:01 | 53.76290 | 0.35519 | 28251 ft | 388 kts | 305° |
| 2026-04-27 20:01 | 53.77707 | 0.31583 | 27808 ft | 392 kts | 305° |
| 2026-04-27 20:01 | 53.79118 | 0.27649 | 27361 ft | 390 kts | 305° |
| 2026-04-27 20:02 | 53.80520 | 0.23742 | 26960 ft | 386 kts | 305° |
| 2026-04-27 20:02 | 53.81865 | 0.19979 | 26842 ft | 369 kts | 305° |
| 2026-04-27 20:02 | 53.83164 | 0.16343 | 26582 ft | 354 kts | 305° |
| 2026-04-27 20:02 | 53.84415 | 0.12850 | 26284 ft | 341 kts | 306° |
| 2026-04-27 20:03 | 53.85636 | 0.09430 | 25922 ft | 333 kts | 306° |
| 2026-04-27 20:03 | 53.86821 | 0.06108 | 25504 ft | 327 kts | 306° |
| 2026-04-27 20:03 | 53.87992 | 0.02827 | 25033 ft | 323 kts | 306° |
| 2026-04-27 20:03 | 53.89150 | -0.00418 | 24523 ft | 321 kts | 306° |
| 2026-04-27 20:04 | 53.90305 | -0.03661 | 23964 ft | 321 kts | 306° |
| 2026-04-27 20:04 | 53.91461 | -0.06907 | 23320 ft | 321 kts | 306° |
| 2026-04-27 20:04 | 53.92573 | -0.10053 | 22980 ft | 312 kts | 306° |
| 2026-04-27 20:04 | 53.93695 | -0.13217 | 22363 ft | 311 kts | 306° |
| 2026-04-27 20:05 | 53.94814 | -0.16375 | 21708 ft | 313 kts | 306° |
| 2026-04-27 20:05 | 53.95933 | -0.19545 | 21086 ft | 313 kts | 306° |
| 2026-04-27 20:05 | 53.97056 | -0.22733 | 20485 ft | 313 kts | 306° |
| 2026-04-27 20:05 | 53.98157 | -0.25862 | 19891 ft | 313 kts | 306° |
| 2026-04-27 20:06 | 53.99279 | -0.29057 | 19306 ft | 312 kts | 306° |
| 2026-04-27 20:06 | 54.00390 | -0.32220 | 18767 ft | 311 kts | 305° |
| 2026-04-27 20:06 | 54.01485 | -0.35350 | 18192 ft | 309 kts | 305° |
| 2026-04-27 20:06 | 54.02578 | -0.38479 | 17648 ft | 305 kts | 306° |
| 2026-04-27 20:07 | 54.03661 | -0.41564 | 17107 ft | 302 kts | 306° |
| 2026-04-27 20:07 | 54.04730 | -0.44636 | 16585 ft | 300 kts | 305° |
| 2026-04-27 20:07 | 54.05788 | -0.47681 | 16068 ft | 297 kts | 305° |
| 2026-04-27 20:07 | 54.06835 | -0.50699 | 15563 ft | 294 kts | 305° |
| 2026-04-27 20:08 | 54.07874 | -0.53687 | 15078 ft | 292 kts | 306° |
| 2026-04-27 20:08 | 54.08893 | -0.56613 | 14598 ft | 289 kts | 306° |
| 2026-04-27 20:08 | 54.09917 | -0.59572 | 14122 ft | 287 kts | 305° |
| 2026-04-27 20:08 | 54.10925 | -0.62506 | 13607 ft | 285 kts | 305° |
| 2026-04-27 20:09 | 54.11927 | -0.65418 | 13079 ft | 283 kts | 305° |
| 2026-04-27 20:09 | 54.12909 | -0.68277 | 12584 ft | 282 kts | 305° |
| 2026-04-27 20:09 | 54.13897 | -0.71151 | 12097 ft | 280 kts | 305° |
| 2026-04-27 20:09 | 54.14891 | -0.74033 | 11605 ft | 278 kts | 305° |
| 2026-04-27 20:10 | 54.15858 | -0.76837 | 11134 ft | 277 kts | 305° |
| 2026-04-27 20:10 | 54.16829 | -0.79667 | 10667 ft | 275 kts | 304° |
| 2026-04-27 20:10 | 54.17797 | -0.82486 | 10202 ft | 274 kts | 304° |
| 2026-04-27 20:10 | 54.18759 | -0.85289 | 9705 ft | 272 kts | 304° |
| 2026-04-27 20:11 | 54.19713 | -0.88084 | 9224 ft | 271 kts | 304° |
| 2026-04-27 20:11 | 54.20661 | -0.90864 | 8742 ft | 269 kts | 304° |
| 2026-04-27 20:11 | 54.21599 | -0.93623 | 8265 ft | 268 kts | 304° |
| 2026-04-27 20:11 | 54.22518 | -0.96352 | 7814 ft | 267 kts | 303° |
| 2026-04-27 20:12 | 54.23226 | -0.99221 | 7729 ft | 255 kts | 295° |
| 2026-04-27 20:12 | 54.23623 | -1.01068 | 7707 ft | 245 kts | 295° |
| 2026-04-27 20:12 | 54.24370 | -1.04574 | 7636 ft | 228 kts | 295° |
| 2026-04-27 20:12 | 54.24905 | -1.07113 | 7418 ft | 225 kts | 295° |
| 2026-04-27 20:13 | 54.25435 | -1.09635 | 7144 ft | 225 kts | 295° |
| 2026-04-27 20:13 | 54.25967 | -1.12154 | 6853 ft | 226 kts | 295° |
| 2026-04-27 20:13 | 54.26497 | -1.14684 | 6573 ft | 225 kts | 295° |
| 2026-04-27 20:13 | 54.27019 | -1.17215 | 6262 ft | 225 kts | 295° |
| 2026-04-27 20:14 | 54.27491 | -1.19505 | 6056 ft | 224 kts | 295° |
| 2026-04-27 20:14 | 54.28002 | -1.21986 | 5807 ft | 224 kts | 295° |
| 2026-04-27 20:14 | 54.28521 | -1.24499 | 5514 ft | 223 kts | 295° |
| 2026-04-27 20:14 | 54.29038 | -1.27017 | 5260 ft | 222 kts | 295° |
| 2026-04-27 20:15 | 54.29543 | -1.29477 | 5013 ft | 221 kts | 295° |
| 2026-04-27 20:15 | 54.30056 | -1.31961 | 4770 ft | 219 kts | 297° |
| 2026-04-27 20:15 | 54.30793 | -1.34193 | 4500 ft | 213 kts | 310° |
| 2026-04-27 20:15 | 54.31617 | -1.36245 | 4454 ft | 203 kts | 310° |
| 2026-04-27 20:16 | 54.32377 | -1.38177 | 4386 ft | 188 kts | 310° |
| 2026-04-27 20:16 | 54.33079 | -1.39990 | 4309 ft | 182 kts | 310° |
| 2026-04-27 20:16 | 54.33769 | -1.41785 | 4134 ft | 180 kts | 310° |
| 2026-04-27 20:16 | 54.34464 | -1.43588 | 3942 ft | 181 kts | 310° |
| 2026-04-27 20:17 | 54.35161 | -1.45397 | 3753 ft | 181 kts | 310° |
| 2026-04-27 20:17 | 54.35856 | -1.47202 | 3560 ft | 181 kts | 310° |
| 2026-04-27 20:17 | 54.36532 | -1.48963 | 3524 ft | 173 kts | 310° |
| 2026-04-27 20:17 | 54.36975 | -1.50132 | 3531 ft | 174 kts | 310° |
| 2026-04-27 20:18 | 54.37951 | -1.52345 | 3550 ft | 177 kts | 315° |
| 2026-04-27 20:18 | 54.38696 | -1.53964 | 3552 ft | 168 kts | 315° |
| 2026-04-27 20:18 | 54.39394 | -1.55501 | 3412 ft | 160 kts | 317° |
| 2026-04-27 20:18 | 54.40256 | -1.56386 | 3282 ft | 137 kts | 2° |
| 2026-04-27 20:19 | 54.41158 | -1.56212 | 3182 ft | 127 kts | 9° |
| 2026-04-27 20:19 | 54.42059 | -1.56005 | 2849 ft | 135 kts | 10° |
| 2026-04-27 20:19 | 54.42999 | -1.55752 | 2532 ft | 140 kts | 13° |
| 2026-04-27 20:19 | 54.43922 | -1.55140 | 2237 ft | 143 kts | 23° |
| 2026-04-27 20:20 | 54.44830 | -1.54423 | 1883 ft | 144 kts | 34° |
| 2026-04-27 20:20 | 54.45470 | -1.53156 | 1706 ft | 142 kts | 50° |
| 2026-04-27 20:20 | 54.46135 | -1.51752 | 1559 ft | 160 kts | 45° |
| 2026-04-27 20:20 | 54.46989 | -1.50248 | 1462 ft | 197 kts | 43° |